Terminal Aerodrome Forecast
Issued by NWS

Home | Current Version | Previous Version | Text Only | Print | Product List | Glossary On
Versions: 1 2 3 4 5 6 7 8 9 10 11 12 13 14 15 16 17 18 19 20 21 22 23 24 25 26 27 28 29 30 31 32
000
FTUS41 KRNK 251130
TAFBCB
TAF
KBCB 251130Z 2512/2612 00000KT 1SM BR BKN005
      TEMPO 2512/2513 1/2SM FG VV003
     FM251300 24004KT P6SM BKN035 BKN200
     FM251900 28004KT P6SM BKN040 BKN250
     FM260400 00000KT P6SM SCT250
     FM260800 00000KT 2SM BR BKN003
      TEMPO 2608/2612 1/4SM FG VV002=

USA.gov is the U.S. government's official web portal to all federal, state and local government web resources and services.